^^
Station Historical Data
Daily Summary for March 10, 2017 Units:  English    Metric   Both
« Previous Day
Next Day »
Daily Weekly Monthly Yearly Custom
  High: Low: Average:
Temperature: 43.3 °F 20.9 °F 32.4 °F
Dew Point: 31.4 °F 6.4 °F 25.4 °F
Humidity: 92 % 53 % 76 %
Wind Speed: 20.5 mph 0.0 mph 6.1 mph
Wind Gust: 26.5 mph - -
Wind:- - SSW
Pressure: 30.14 in 29.85 in -
Precipitation: 0.25 in    
Historical Graphs
 
 
Tabular Data for March 10, 2017
Time Temperature Dew Point Pressure Wind Wind Speed Wind Gust Humidity Rainfall Rate (Hourly) solar Conditions
00:03 43.3 °F 30.3 °F 29.98 in NNE 3.6 mph 5.8 mph 60 % 0.00 in 0.0 W/m2 SCT
00:08 43.1 °F 30.6 °F 29.97 in North 7.1 mph 11.5 mph 61 % 0.00 in 0.0 W/m2 SCT
00:13 42.9 °F 31.2 °F 29.98 in North 5.0 mph 8.1 mph 63 % 0.00 in 0.0 W/m2 SCT
00:18 42.9 °F 31.2 °F 29.97 in NNW 3.6 mph 5.8 mph 63 % 0.00 in 0.0 W/m2 SCT
00:23 42.7 °F 31.4 °F 29.97 in North 5.3 mph 10.4 mph 64 % 0.00 in 0.0 W/m2 SCT
00:28 42.3 °F 31.4 °F 29.97 in North 4.9 mph 8.1 mph 65 % 0.00 in 0.0 W/m2 SCT
00:33 42.0 °F 31.1 °F 29.97 in North 4.1 mph 9.2 mph 65 % 0.00 in 0.0 W/m2 SCT
00:38 41.7 °F 30.8 °F 29.97 in North 2.5 mph 5.0 mph 65 % 0.00 in 0.0 W/m2 SCT
00:43 41.5 °F 31.0 °F 29.97 in NNW 2.2 mph 10.4 mph 66 % 0.00 in 0.0 W/m2 SCT
00:48 41.4 °F 30.9 °F 29.97 in North 5.0 mph 8.1 mph 66 % 0.00 in 0.0 W/m2 SCT
00:53 41.3 °F 30.8 °F 29.97 in North 2.7 mph 5.8 mph 66 % 0.00 in 0.0 W/m2 SCT
00:58 41.2 °F 31.1 °F 29.97 in NNW 3.6 mph 5.0 mph 67 % 0.00 in 0.0 W/m2 SCT
01:03 41.1 °F 31.0 °F 29.97 in NNE 5.4 mph 9.0 mph 67 % 0.00 in 0.0 W/m2 SCT
01:08 40.7 °F 31.0 °F 29.97 in North 3.3 mph 11.5 mph 68 % 0.00 in 0.0 W/m2 SCT
01:13 40.5 °F 30.8 °F 29.96 in North 4.8 mph 8.1 mph 68 % 0.00 in 0.0 W/m2 SCT
01:18 40.3 °F 30.6 °F 29.96 in NNW 4.2 mph 8.0 mph 68 % 0.00 in 0.0 W/m2 SCT
01:23 40.2 °F 30.8 °F 29.95 in NNW 2.4 mph 3.5 mph 69 % 0.00 in 0.0 W/m2 SCT
01:28 40.0 °F 30.6 °F 29.95 in North 3.3 mph 4.6 mph 69 % 0.00 in 0.0 W/m2 SCT
01:33 39.8 °F 30.5 °F 29.95 in North 5.4 mph 9.2 mph 69 % 0.00 in 0.0 W/m2 SCT
01:38 39.6 °F 30.6 °F 29.95 in North 1.9 mph 4.6 mph 70 % 0.00 in 0.0 W/m2 SCT
01:43 39.6 °F 30.6 °F 29.95 in North 4.0 mph 5.0 mph 70 % 0.00 in 0.0 W/m2 SCT
01:48 39.5 °F 30.5 °F 29.95 in NNE 4.3 mph 8.1 mph 70 % 0.00 in 0.0 W/m2 SCT
01:53 39.3 °F 30.3 °F 29.95 in NE 8.1 mph 11.5 mph 70 % 0.00 in 0.0 W/m2 SCT
01:58 39.0 °F 30.0 °F 29.95 in NNE 5.2 mph 10.0 mph 70 % 0.00 in 0.0 W/m2 SCT
02:03 38.9 °F 29.9 °F 29.95 in NNE 4.8 mph 9.2 mph 70 % 0.00 in 0.0 W/m2 SCT
02:08 38.9 °F 29.6 °F 29.95 in NNE 1.9 mph 4.6 mph 69 % 0.00 in 0.0 W/m2 SCT
02:13 38.8 °F 29.8 °F 29.95 in North 2.7 mph 4.6 mph 70 % 0.00 in 0.0 W/m2 SCT
02:18 38.8 °F 29.8 °F 29.95 in NNW 3.5 mph 3.5 mph 70 % 0.00 in 0.0 W/m2 SCT
02:23 38.8 °F 29.5 °F 29.95 in North 1.8 mph 8.1 mph 69 % 0.00 in 0.0 W/m2 SCT
02:28 38.7 °F 29.4 °F 29.95 in NNW 3.8 mph 6.9 mph 69 % 0.00 in 0.0 W/m2 SCT
02:33 38.6 °F 29.3 °F 29.95 in North 3.8 mph 11.5 mph 69 % 0.00 in 0.0 W/m2 SCT
02:38 38.6 °F 29.3 °F 29.95 in NNE 4.2 mph 9.2 mph 69 % 0.00 in 0.0 W/m2 SCT
02:43 38.5 °F 29.2 °F 29.94 in NNE 4.2 mph 8.0 mph 69 % 0.00 in 0.0 W/m2 SCT
02:48 38.5 °F 29.2 °F 29.93 in North 2.3 mph 6.9 mph 69 % 0.00 in 0.0 W/m2 SCT
02:53 38.4 °F 29.1 °F 29.92 in NNE 3.5 mph 8.0 mph 69 % 0.00 in 0.0 W/m2 SCT
02:58 38.2 °F 28.9 °F 29.91 in NNE 6.7 mph 10.4 mph 69 % 0.00 in 0.0 W/m2 SCT
03:03 38.1 °F 28.8 °F 29.92 in North 5.5 mph 9.2 mph 69 % 0.00 in 0.0 W/m2 SCT
03:08 38.0 °F 28.7 °F 29.91 in NNE 5.5 mph 8.1 mph 69 % 0.00 in 0.0 W/m2 SCT
03:13 38.0 °F 28.7 °F 29.91 in NW 2.9 mph 9.0 mph 69 % 0.00 in 0.0 W/m2 SCT
03:18 38.0 °F 28.7 °F 29.91 in North 0.5 mph 5.8 mph 69 % 0.00 in 0.0 W/m2 SCT
03:23 37.9 °F 28.6 °F 29.91 in NNE 5.4 mph 9.2 mph 69 % 0.00 in 0.0 W/m2 SCT
03:28 37.8 °F 28.5 °F 29.91 in North 3.9 mph 5.8 mph 69 % 0.00 in 0.0 W/m2 SCT
03:33 37.8 °F 28.9 °F 29.91 in NNW 1.1 mph 3.5 mph 70 % 0.00 in 0.0 W/m2 SCT
03:38 37.8 °F 28.9 °F 29.91 in NNE 3.5 mph 6.9 mph 70 % 0.00 in 0.0 W/m2 SCT
03:43 37.7 °F 28.8 °F 29.91 in NNE 2.5 mph 4.6 mph 70 % 0.00 in 0.0 W/m2 SCT
03:48 37.7 °F 28.8 °F 29.90 in North 1.2 mph 3.0 mph 70 % 0.00 in 0.0 W/m2 SCT
03:53 37.6 °F 28.7 °F 29.90 in NNE 2.3 mph 3.5 mph 70 % 0.00 in 0.0 W/m2 SCT
03:58 37.6 °F 28.7 °F 29.90 in NNE 2.0 mph 4.0 mph 70 % 0.00 in 0.0 W/m2 SCT
04:03 37.5 °F 28.6 °F 29.90 in NNW 0.9 mph 8.0 mph 70 % 0.00 in 0.0 W/m2 SCT
04:08 37.5 °F 28.6 °F 29.90 in NNE 2.9 mph 4.6 mph 70 % 0.00 in 0.0 W/m2 SCT
04:13 37.5 °F 28.6 °F 29.89 in NNE 5.1 mph 5.8 mph 70 % 0.00 in 0.0 W/m2 SCT
04:18 37.4 °F 28.5 °F 29.88 in NNE 4.1 mph 6.9 mph 70 % 0.00 in 0.0 W/m2 SCT
04:19 37.4 °F 28.5 °F 29.88 in NNE 4.1 mph 6.9 mph 70 % 0.00 in 0.0 W/m2 SCT
04:24 37.3 °F 28.4 °F 29.89 in North 2.6 mph 3.5 mph 70 % 0.00 in 0.0 W/m2 SCT
04:29 37.3 °F 28.8 °F 29.89 in North 3.8 mph 5.0 mph 71 % 0.00 in 0.0 W/m2 SCT
04:34 37.2 °F 28.7 °F 29.88 in NNE 3.9 mph 8.1 mph 71 % 0.00 in 0.0 W/m2 SCT
04:39 37.2 °F 28.7 °F 29.88 in NNE 7.0 mph 7.0 mph 71 % 0.00 in 0.0 W/m2 SCT
04:44 37.1 °F 28.2 °F 29.87 in NE 6.8 mph 10.4 mph 70 % 0.00 in 0.0 W/m2 SCT
04:49 36.9 °F 28.0 °F 29.87 in NNE 8.7 mph 12.0 mph 70 % 0.00 in 0.0 W/m2 SCT
04:54 36.9 °F 28.0 °F 29.88 in NNE 6.3 mph 9.2 mph 70 % 0.00 in 0.0 W/m2 SCT
04:59 36.8 °F 27.6 °F 29.88 in NNE 3.9 mph 10.4 mph 69 % 0.00 in 0.0 W/m2 SCT
05:04 36.8 °F 27.6 °F 29.88 in NE 8.4 mph 10.0 mph 69 % 0.00 in 0.0 W/m2 SCT
05:09 36.7 °F 27.1 °F 29.88 in North 5.5 mph 9.2 mph 68 % 0.00 in 0.0 W/m2 SCT
05:14 36.7 °F 27.1 °F 29.88 in NNE 4.1 mph 9.2 mph 68 % 0.00 in 0.0 W/m2 SCT
05:19 36.7 °F 27.1 °F 29.89 in NNE 4.5 mph 8.1 mph 68 % 0.00 in 0.0 W/m2 SCT
05:24 36.6 °F 27.0 °F 29.89 in North 7.7 mph 11.5 mph 68 % 0.00 in 0.0 W/m2 SCT
05:29 36.4 °F 26.8 °F 29.89 in NNE 6.6 mph 11.5 mph 68 % 0.00 in 0.0 W/m2 SCT
05:34 36.2 °F 27.0 °F 29.89 in NE 5.4 mph 8.1 mph 69 % 0.00 in 0.0 W/m2 SCT
05:39 36.1 °F 27.3 °F 29.89 in North 4.4 mph 6.9 mph 70 % 0.00 in 0.0 W/m2 SCT
05:44 36.0 °F 27.2 °F 29.90 in NE 10.0 mph 11.5 mph 70 % 0.00 in 0.0 W/m2 SCT
05:49 35.7 °F 27.2 °F 29.90 in North 5.7 mph 10.4 mph 71 % 0.00 in 0.0 W/m2 SCT
05:54 35.6 °F 27.5 °F 29.90 in North 7.1 mph 12.7 mph 72 % 0.00 in 0.0 W/m2 SCT
05:59 35.1 °F 27.6 °F 29.90 in NNE 5.0 mph 11.5 mph 74 % 0.00 in 0.0 W/m2 SCT
06:04 34.4 °F 27.9 °F 29.90 in NNE 8.2 mph 11.5 mph 77 % 0.00 in 0.0 W/m2 SCT
06:09 33.7 °F 28.2 °F 29.90 in NNE 4.1 mph 5.0 mph 80 % 0.00 in 0.0 W/m2 SCT
06:14 33.3 °F 28.4 °F 29.90 in NNE 3.9 mph 4.6 mph 82 % 0.00 in 0.0 W/m2 SCT
06:19 33.1 °F 28.5 °F 29.90 in NNE 3.5 mph 3.5 mph 83 % 0.00 in 0.0 W/m2 SCT
06:24 32.9 °F 28.6 °F 29.90 in NNE 3.1 mph 5.0 mph 84 % 0.00 in 0.0 W/m2 SCT
06:29 32.8 °F 28.5 °F 29.90 in NNE 7.0 mph 11.5 mph 84 % 0.00 in 0.0 W/m2 SCT
06:34 32.7 °F 28.7 °F 29.90 in North 5.0 mph 7.0 mph 85 % 0.00 in 0.0 W/m2 SCT
06:39 32.5 °F 28.8 °F 29.89 in NNE 4.0 mph 8.0 mph 86 % 0.00 in 0.0 W/m2 SCT
06:44 32.3 °F 28.6 °F 29.89 in NNE 3.0 mph 6.0 mph 86 % 0.00 in 0.0 W/m2 SCT
06:49 32.2 °F 28.5 °F 29.89 in NNE 4.9 mph 8.1 mph 86 % 0.00 in 0.0 W/m2 SCT
06:54 32.0 °F 28.6 °F 29.89 in NNE 3.5 mph 6.9 mph 87 % 0.00 in 5.0 W/m2 SCT
06:59 31.9 °F 28.5 °F 29.89 in NNE 1.9 mph 3.5 mph 87 % 0.00 in 5.0 W/m2 SCT
07:04 31.9 °F 28.8 °F 29.89 in NNE 3.8 mph 8.1 mph 88 % 0.00 in 5.0 W/m2 SCT
07:09 31.8 °F 28.7 °F 29.89 in NNE 5.8 mph 8.1 mph 88 % 0.00 in 7.0 W/m2 OVC
07:14 31.7 °F 28.6 °F 29.89 in NE 4.8 mph 5.8 mph 88 % 0.00 in 9.0 W/m2 OVC
07:19 31.7 °F 28.6 °F 29.89 in NNE 6.5 mph 9.2 mph 88 % 0.00 in 11.0 W/m2 OVC
07:24 31.6 °F 28.7 °F 29.89 in NNE 2.6 mph 4.0 mph 89 % 0.00 in 12.0 W/m2 OVC
07:29 31.6 °F 28.7 °F 29.90 in North 4.6 mph 8.1 mph 89 % 0.00 in 12.0 W/m2 OVC
07:34 31.6 °F 28.7 °F 29.90 in NNE 1.5 mph 3.5 mph 89 % 0.00 in 12.0 W/m2 OVC
07:39 31.6 °F 28.7 °F 29.89 in NNE 3.2 mph 5.8 mph 89 % 0.00 in 14.0 W/m2 OVC
07:44 31.5 °F 28.6 °F 29.89 in North 3.4 mph 7.0 mph 89 % 0.00 in 23.0 W/m2 OVC
07:49 31.5 °F 28.6 °F 29.89 in NNE 5.2 mph 8.1 mph 89 % 0.00 in 33.0 W/m2 OVC
07:54 31.4 °F 28.8 °F 29.89 in NNE 2.9 mph 3.5 mph 90 % 0.00 in 28.0 W/m2 OVC
07:59 31.5 °F 28.9 °F 29.89 in NNE 4.3 mph 8.1 mph 90 % 0.00 in 23.0 W/m2 OVC
08:04 31.5 °F 28.9 °F 29.89 in North 3.9 mph 6.9 mph 90 % 0.00 in 19.0 W/m2 OVC
08:09 31.5 °F 28.9 °F 29.90 in North 4.9 mph 9.2 mph 90 % 0.00 in 19.0 W/m2 OVC
08:14 31.5 °F 28.9 °F 29.89 in North 7.0 mph 11.5 mph 90 % 0.00 in 19.0 W/m2 OVC
08:19 31.4 °F 28.8 °F 29.90 in North 2.5 mph 6.0 mph 90 % 0.00 in 23.0 W/m2 OVC
08:24 31.4 °F 28.8 °F 29.90 in North 2.7 mph 5.8 mph 90 % 0.00 in 23.0 W/m2 OVC
08:29 31.4 °F 28.8 °F 29.90 in North 3.9 mph 5.8 mph 90 % 0.00 in 23.0 W/m2 OVC
08:34 31.4 °F 28.8 °F 29.90 in NNE 3.0 mph 5.8 mph 90 % 0.00 in 21.0 W/m2 OVC
08:39 31.4 °F 29.1 °F 29.90 in NNE 3.2 mph 4.6 mph 91 % 0.00 in 18.0 W/m2 OVC
08:44 31.4 °F 29.1 °F 29.90 in North 1.4 mph 4.6 mph 91 % 0.00 in 18.0 W/m2 OVC
08:49 31.4 °F 29.1 °F 29.90 in NNW 2.1 mph 5.0 mph 91 % 0.00 in 16.0 W/m2 OVC
08:54 31.5 °F 29.2 °F 29.90 in NNW 6.7 mph 8.1 mph 91 % 0.00 in 18.0 W/m2 OVC
08:59 31.3 °F 28.7 °F 29.91 in NNE 3.3 mph 8.1 mph 90 % 0.00 in 19.0 W/m2 OVC
09:04 31.0 °F 28.7 °F 29.90 in North 3.2 mph 5.0 mph 91 % 0.00 in 23.0 W/m2 OVC
09:09 30.9 °F 28.6 °F 29.90 in NNE 4.4 mph 8.1 mph 91 % 0.00 in 18.0 W/m2 OVC
09:14 30.7 °F 28.4 °F 29.90 in NNE 3.1 mph 8.1 mph 91 % 0.00 in 18.0 W/m2 OVC
09:19 30.6 °F 28.3 °F 29.89 in NE 6.8 mph 9.2 mph 91 % 0.00 in 21.0 W/m2 OVC
09:24 30.5 °F 28.2 °F 29.89 in NNE 2.6 mph 4.6 mph 91 % 0.00 in 25.0 W/m2 OVC
09:29 30.5 °F 28.2 °F 29.90 in Calm     91 % 0.00 in 21.0 W/m2 OVC
09:34 30.5 °F 28.2 °F 29.90 in North 2.3 mph 3.5 mph 91 % 0.00 in 19.0 W/m2 OVC
09:39 30.5 °F 28.2 °F 29.90 in North 0.7 mph 3.5 mph 91 % 0.00 in 18.0 W/m2 OVC
09:44 30.5 °F 28.2 °F 29.90 in NNE 3.1 mph 5.8 mph 91 % 0.00 in 14.0 W/m2 OVC
09:49 30.4 °F 28.1 °F 29.89 in North 1.1 mph 3.5 mph 91 % 0.00 in 18.0 W/m2 OVC
09:54 30.4 °F 28.1 °F 29.90 in North 0.8 mph 4.6 mph 91 % 0.00 in 18.0 W/m2 OVC
09:59 30.5 °F 28.2 °F 29.90 in NNW 1.3 mph 3.5 mph 91 % 0.00 in 16.0 W/m2 OVC
10:04 30.5 °F 28.2 °F 29.90 in North 0.3 mph 1.2 mph 91 % 0.00 in 18.0 W/m2 OVC
10:09 30.6 °F 28.3 °F 29.91 in North 1.0 mph 4.6 mph 91 % 0.00 in 18.0 W/m2 OVC
10:14 30.6 °F 28.3 °F 29.91 in North 2.9 mph 4.6 mph 91 % 0.00 in 19.0 W/m2 OVC
10:19 30.6 °F 28.3 °F 29.92 in NNW 1.0 mph 4.0 mph 91 % 0.00 in 25.0 W/m2 OVC
10:24 30.7 °F 28.7 °F 29.92 in NNW 2.0 mph 3.5 mph 92 % 0.00 in 21.0 W/m2 OVC
10:29 30.7 °F 28.7 °F 29.93 in North 2.2 mph 5.8 mph 92 % 0.00 in 23.0 W/m2 OVC
10:34 30.8 °F 28.8 °F 29.92 in NNW 3.6 mph 8.1 mph 92 % 0.00 in 21.0 W/m2 OVC
10:39 30.8 °F 28.8 °F 29.92 in NNW 0.7 mph 5.8 mph 92 % 0.00 in 25.0 W/m2 OVC
10:44 30.9 °F 28.9 °F 29.93 in Calm   3.5 mph 92 % 0.00 in 23.0 W/m2 OVC
10:49 30.9 °F 28.9 °F 29.92 in North 2.5 mph 3.5 mph 92 % 0.00 in 25.0 W/m2 OVC
10:54 30.9 °F 28.9 °F 29.93 in NW 0.5 mph 5.8 mph 92 % 0.00 in 25.0 W/m2 OVC
10:59 30.9 °F 28.9 °F 29.91 in North 2.3 mph 3.5 mph 92 % 0.00 in 28.0 W/m2 OVC
11:04 31.1 °F 29.0 °F 29.92 in NNW 2.0 mph 3.5 mph 92 % 0.00 in 26.0 W/m2 OVC
11:09 31.1 °F 29.0 °F 29.91 in NNW 4.2 mph 8.1 mph 92 % 0.00 in 32.0 W/m2 OVC
11:14 31.2 °F 29.1 °F 29.91 in NNW 0.6 mph 2.3 mph 92 % 0.00 in 37.0 W/m2 OVC
11:19 31.3 °F 29.2 °F 29.91 in Calm   1.2 mph 92 % 0.00 in 42.0 W/m2 OVC
11:24 31.7 °F 29.6 °F 29.91 in NNW 3.2 mph 8.1 mph 92 % 0.00 in 42.0 W/m2 OVC
11:29 31.7 °F 29.6 °F 29.91 in NNW 4.6 mph 8.1 mph 92 % 0.00 in 44.0 W/m2 OVC
11:34 31.7 °F 29.4 °F 29.91 in NW 8.3 mph 12.7 mph 91 % 0.00 in 40.0 W/m2 OVC
11:39 31.7 °F 29.4 °F 29.91 in NNW 3.8 mph 4.6 mph 91 % 0.00 in 53.0 W/m2 OVC
11:44 32.0 °F 29.7 °F 29.91 in NW 2.9 mph 5.8 mph 91 % 0.00 in 58.0 W/m2 OVC
11:49 32.3 °F 29.7 °F 29.91 in NW 5.6 mph 9.2 mph 90 % 0.00 in 70.0 W/m2 OVC
11:54 32.6 °F 29.4 °F 29.90 in NNW 6.7 mph 13.8 mph 88 % 0.00 in 86.0 W/m2 OVC
11:59 33.1 °F 29.4 °F 29.89 in NW 5.8 mph 12.7 mph 86 % 0.00 in 97.0 W/m2 OVC
12:04 33.5 °F 29.2 °F 29.89 in NNW 6.4 mph 15.0 mph 84 % 0.01 in 100.0 W/m2 RA
12:09 33.8 °F 29.2 °F 29.89 in NNW 4.0 mph 8.0 mph 83 % 0.01 in 111.0 W/m2 RA
12:14 34.0 °F 28.8 °F 29.89 in NNW 7.9 mph 11.5 mph 81 % 0.01 in 123.0 W/m2 OVC
12:19 34.5 °F 29.0 °F 29.89 in North 7.5 mph 12.7 mph 80 % 0.02 in 137.0 W/m2 RA
12:24 34.4 °F 27.9 °F 29.89 in NNW 11.0 mph 13.8 mph 77 % 0.02 in 162.0 W/m2 RA
12:29 35.0 °F 28.2 °F 29.88 in NW 7.5 mph 11.5 mph 76 % 0.03 in 207.0 W/m2 RA
12:34 35.6 °F 28.5 °F 29.88 in NNW 7.0 mph 11.5 mph 75 % 0.03 in 236.0 W/m2 RA
12:39 35.7 °F 27.9 °F 29.88 in NW 5.9 mph 10.0 mph 73 % 0.04 in 258.0 W/m2 RA
12:44 35.7 °F 27.6 °F 29.87 in NNW 6.1 mph 9.2 mph 72 % 0.04 in 288.0 W/m2 RA
12:49 35.9 °F 27.4 °F 29.87 in NW 6.4 mph 10.4 mph 71 % 0.05 in 338.0 W/m2 RA
12:54 35.9 °F 27.1 °F 29.87 in NW 7.4 mph 9.2 mph 70 % 0.05 in 396.0 W/m2 RA
12:59 35.9 °F 26.7 °F 29.87 in NW 9.3 mph 13.0 mph 69 % 0.06 in 526.0 W/m2 RA
13:04 36.4 °F 26.8 °F 29.87 in NW 7.1 mph 11.5 mph 68 % 0.06 in 900.0 W/m2 RA
13:09 37.6 °F 28.0 °F 29.87 in WNW 3.9 mph 11.5 mph 68 % 0.06 in 867.0 W/m2 RA
13:10 37.7 °F 28.1 °F 29.87 in NW 6.7 mph 8.1 mph 68 % 0.06 in 867.0 W/m2 RA
13:15 38.2 °F 27.5 °F 29.86 in NW 6.2 mph 11.5 mph 65 % 0.07 in 779.0 W/m2 RA
13:20 38.2 °F 27.5 °F 29.86 in WNW 10.0 mph 12.7 mph 65 % 0.07 in 856.0 W/m2 RA
13:25 38.4 °F 27.7 °F 29.87 in NW 5.9 mph 11.5 mph 65 % 0.07 in 533.0 W/m2 RA
13:30 37.3 °F 25.8 °F 29.86 in North 10.4 mph 13.8 mph 63 % 0.06 in 197.0 W/m2 BKN
13:35 36.9 °F 25.9 °F 29.86 in WNW 6.4 mph 16.0 mph 64 % 0.06 in 355.0 W/m2 SCT
13:40 37.0 °F 25.6 °F 29.86 in NNW 8.2 mph 11.5 mph 63 % 0.06 in 269.0 W/m2 RA
13:45 36.8 °F 25.4 °F 29.85 in NW 8.5 mph 13.8 mph 63 % 0.07 in 274.0 W/m2 RA
13:50 36.5 °F 25.5 °F 29.85 in WNW 2.4 mph 6.9 mph 64 % 0.06 in 265.0 W/m2 RA
13:55 36.8 °F 25.8 °F 29.85 in WNW 2.1 mph 5.0 mph 64 % 0.06 in 404.0 W/m2 RA
14:00 37.1 °F 26.0 °F 29.85 in NW 6.5 mph 10.0 mph 64 % 0.07 in 350.0 W/m2 RA
14:05 36.9 °F 25.9 °F 29.85 in NW 5.2 mph 8.1 mph 64 % 0.06 in 269.0 W/m2 RA
14:10 36.1 °F 25.8 °F 29.85 in North 4.6 mph 5.8 mph 66 % 0.07 in 237.0 W/m2 RA
14:20 36.0 °F 26.1 °F 29.85 in NNW 6.7 mph 10.0 mph 67 % 0.06 in 313.0 W/m2 RA
14:25 36.4 °F 26.5 °F 29.85 in NW 6.0 mph 9.2 mph 67 % 0.06 in 380.0 W/m2 RA
14:30 37.2 °F 26.9 °F 29.85 in NW 4.6 mph 8.1 mph 66 % 0.06 in 336.0 W/m2 CLR
14:35 37.4 °F 26.7 °F 29.86 in NNW 11.4 mph 15.0 mph 65 % 0.07 in 130.0 W/m2 RA
14:40 36.4 °F 26.5 °F 29.87 in NNW 9.7 mph 17.3 mph 67 % 0.06 in 93.0 W/m2 RA
14:45 34.1 °F 25.7 °F 29.88 in NNW 5.7 mph 10.0 mph 71 % 0.05 in 127.0 W/m2 OVC
14:50 32.5 °F 25.5 °F 29.88 in NNW 9.7 mph 15.0 mph 75 % 0.06 in 109.0 W/m2 RA
14:55 31.9 °F 26.1 °F 29.87 in West 2.7 mph 4.6 mph 79 % 0.05 in 130.0 W/m2 RA
15:00 31.9 °F 27.0 °F 29.87 in WNW 2.7 mph 4.6 mph 82 % 0.04 in 207.0 W/m2 BKN
15:05 32.9 °F 28.6 °F 29.87 in WNW 5.9 mph 11.5 mph 84 % 0.04 in 519.0 W/m2 CLR
15:10 33.0 °F 28.4 °F 29.87 in NW 6.0 mph 8.1 mph 83 % 0.04 in 197.0 W/m2 RA
15:15 33.0 °F 28.4 °F 29.87 in NW 1.7 mph 6.9 mph 83 % 0.04 in 188.0 W/m2 RA
15:20 33.2 °F 28.3 °F 29.87 in NW 5.0 mph 9.2 mph 82 % 0.04 in 186.0 W/m2 RA
15:25 34.2 °F 29.6 °F 29.87 in West 4.7 mph 4.7 mph 83 % 0.04 in 510.0 W/m2 RA
15:30 35.0 °F 29.8 °F 29.87 in West 4.6 mph 6.9 mph 81 % 0.04 in 480.0 W/m2 CLR
15:35 35.8 °F 29.9 °F 29.87 in West 5.0 mph 9.2 mph 79 % 0.04 in 446.0 W/m2 RA
15:40 35.2 °F 29.0 °F 29.87 in West 6.7 mph 10.4 mph 78 % 0.04 in 195.0 W/m2 RA
15:45 35.0 °F 28.8 °F 29.87 in WSW 3.5 mph 10.4 mph 78 % 0.05 in 202.0 W/m2 RA
15:50 34.6 °F 28.1 °F 29.88 in West 8.3 mph 12.7 mph 77 % 0.04 in 105.0 W/m2 RA
15:55 34.1 °F 27.6 °F 29.88 in WNW 4.1 mph 8.1 mph 77 % 0.04 in 62.0 W/m2 OVC
16:00 33.6 °F 27.2 °F 29.89 in WNW 13.4 mph 20.7 mph 77 % 0.04 in 28.0 W/m2 OVC
16:05 32.6 °F 26.8 °F 29.90 in NNW 9.3 mph 15.0 mph 79 % 0.04 in 28.0 W/m2 OVC
16:10 31.6 °F 26.7 °F 29.90 in NNW 3.1 mph 6.0 mph 82 % 0.04 in 84.0 W/m2 RA
16:15 31.3 °F 27.0 °F 29.89 in NNW 3.3 mph 3.5 mph 84 % 0.04 in 91.0 W/m2 RA
16:20 31.3 °F 27.6 °F 29.89 in NNW 3.0 mph 5.8 mph 86 % 0.03 in 121.0 W/m2 SCT
16:25 31.4 °F 28.0 °F 29.90 in NW 2.3 mph 3.5 mph 87 % 0.03 in 179.0 W/m2 BKN
16:30 31.6 °F 28.2 °F 29.90 in Calm   1.0 mph 87 % 0.03 in 88.0 W/m2 BKN
16:35 32.0 °F 28.6 °F 29.90 in WNW 2.5 mph 4.6 mph 87 % 0.02 in 69.0 W/m2 BKN
16:40 32.1 °F 28.7 °F 29.91 in WNW 4.5 mph 8.1 mph 87 % 0.02 in 91.0 W/m2 BKN
16:45 32.4 °F 29.0 °F 29.91 in WSW 0.5 mph 7.0 mph 87 % 0.01 in 62.0 W/m2 BKN
16:50 32.6 °F 28.9 °F 29.91 in WNW 0.7 mph 5.8 mph 86 % 0.01 in 190.0 W/m2 CLR
16:55 32.2 °F 28.2 °F 29.91 in NW 10.7 mph 16.1 mph 85 % 0.02 in 127.0 W/m2 RA
17:00 31.9 °F 27.9 °F 29.91 in NNW 7.3 mph 12.7 mph 85 % 0.02 in 134.0 W/m2 RA
17:05 31.8 °F 27.5 °F 29.91 in NW 10.9 mph 16.1 mph 84 % 0.02 in 76.0 W/m2 SCT
17:10 31.6 °F 27.0 °F 29.91 in NW 7.0 mph 9.2 mph 83 % 0.01 in 28.0 W/m2 OVC
17:15 31.4 °F 26.8 °F 29.91 in WNW 10.1 mph 22.0 mph 83 % 0.01 in 28.0 W/m2 OVC
17:20 31.3 °F 26.1 °F 29.92 in WNW 9.1 mph 17.3 mph 81 % 0.01 in 65.0 W/m2 SCT
17:26 31.8 °F 26.0 °F 29.92 in NW 7.3 mph 12.7 mph 79 % 0.01 in 46.0 W/m2 FEW
17:31 32.2 °F 25.5 °F 29.92 in West 6.8 mph 10.4 mph 76 % 0.01 in 70.0 W/m2 CLR
17:36 32.4 °F 25.4 °F 29.92 in West 8.1 mph 15.0 mph 75 % 0.01 in 28.0 W/m2 SCT
17:41 32.3 °F 24.6 °F 29.93 in WNW 3.8 mph 9.2 mph 73 % 0.02 in 39.0 W/m2 RA
17:46 32.2 °F 24.2 °F 29.93 in NW 5.4 mph 10.4 mph 72 % 0.02 in 18.0 W/m2 RA
17:51 32.2 °F 24.2 °F 29.94 in NW 13.7 mph 20.7 mph 72 % 0.01 in 5.0 W/m2
17:56 31.6 °F 24.6 °F 29.94 in NNW 13.4 mph 17.3 mph 75 % 0.01 in 0.0 W/m2 OVC
18:01 30.4 °F 24.4 °F 29.94 in NW 13.1 mph 18.4 mph 78 % 0.01 in 7.0 W/m2
18:06 29.6 °F 24.5 °F 29.94 in NW 9.4 mph 15.0 mph 81 % 0.01 in 0.0 W/m2
18:11 29.2 °F 24.4 °F 29.94 in WNW 6.8 mph 15.0 mph 82 % 0.01 in 0.0 W/m2
18:16 28.9 °F 24.1 °F 29.95 in NW 9.8 mph 15.0 mph 82 % 0.01 in 0.0 W/m2
18:21 28.8 °F 23.7 °F 29.95 in NW 9.5 mph 16.0 mph 81 % 0.01 in 0.0 W/m2
18:26 28.8 °F 23.7 °F 29.96 in WNW 16.1 mph 26.5 mph 81 % 0.01 in 0.0 W/m2
18:31 28.5 °F 23.4 °F 29.96 in WNW 10.9 mph 18.4 mph 81 % 0.01 in 0.0 W/m2
18:36 28.3 °F 23.2 °F 29.97 in NW 13.8 mph 19.6 mph 81 % 0.01 in 0.0 W/m2
18:41 28.2 °F 23.1 °F 29.97 in NW 13.9 mph 20.7 mph 81 % 0.00 in 0.0 W/m2 CLR
18:46 28.1 °F 23.0 °F 29.97 in NW 6.5 mph 11.5 mph 81 % 0.00 in 0.0 W/m2 CLR
18:51 28.0 °F 22.9 °F 29.97 in NW 7.6 mph 10.4 mph 81 % 0.00 in 0.0 W/m2 CLR
18:56 27.9 °F 22.5 °F 29.98 in WNW 11.6 mph 19.0 mph 80 % 0.00 in 0.0 W/m2 CLR
19:01 27.9 °F 22.2 °F 29.98 in WNW 15.1 mph 18.0 mph 79 % 0.00 in 0.0 W/m2 CLR
19:06 28.1 °F 21.8 °F 29.98 in WNW 10.9 mph 18.4 mph 77 % 0.00 in 0.0 W/m2 CLR
19:11 28.3 °F 21.1 °F 29.99 in NW 13.8 mph 19.6 mph 74 % 0.00 in 0.0 W/m2 CLR
19:17 28.4 °F 20.2 °F 29.99 in WNW 11.7 mph 17.3 mph 71 % 0.00 in 0.0 W/m2 CLR
19:22 28.5 °F 20.0 °F 30.00 in NW 14.2 mph 19.6 mph 70 % 0.00 in 0.0 W/m2 CLR
19:27 28.5 °F 20.0 °F 30.00 in NW 10.1 mph 22.0 mph 70 % 0.00 in 0.0 W/m2 CLR
19:32 28.5 °F 20.0 °F 30.00 in NNW 7.4 mph 11.5 mph 70 % 0.00 in 0.0 W/m2 CLR
19:37 28.3 °F 20.1 °F 30.01 in NNW 6.1 mph 17.3 mph 71 % 0.00 in 0.0 W/m2 CLR
19:42 28.1 °F 20.6 °F 30.01 in North 10.3 mph 12.7 mph 73 % 0.00 in 0.0 W/m2 CLR
19:47 27.7 °F 20.5 °F 30.01 in NW 16.2 mph 23.0 mph 74 % 0.00 in 0.0 W/m2 CLR
19:52 27.3 °F 20.7 °F 30.02 in NNW 13.3 mph 15.0 mph 76 % 0.00 in 0.0 W/m2 CLR
19:57 27.1 °F 20.5 °F 30.02 in NW 14.9 mph 20.0 mph 76 % 0.00 in 0.0 W/m2 CLR
20:02 26.9 °F 20.0 °F 30.03 in North 14.0 mph 21.9 mph 75 % 0.00 in 0.0 W/m2 CLR
20:07 26.7 °F 19.8 °F 30.03 in NNW 11.1 mph 13.8 mph 75 % 0.00 in 0.0 W/m2 CLR
20:12 26.4 °F 19.5 °F 30.03 in NW 12.9 mph 19.6 mph 75 % 0.00 in 0.0 W/m2 CLR
20:17 26.0 °F 19.5 °F 30.03 in NW 14.2 mph 19.6 mph 76 % 0.00 in 0.0 W/m2 CLR
20:22 25.6 °F 19.1 °F 30.04 in North 12.3 mph 18.4 mph 76 % 0.00 in 0.0 W/m2 CLR
20:27 25.4 °F 19.2 °F 30.04 in NNW 6.5 mph 13.8 mph 77 % 0.00 in 0.0 W/m2 CLR
20:32 25.2 °F 19.0 °F 30.04 in NW 8.8 mph 11.5 mph 77 % 0.00 in 0.0 W/m2 CLR
20:37 25.0 °F 18.8 °F 30.05 in NNW 8.0 mph 11.5 mph 77 % 0.00 in 0.0 W/m2 CLR
20:42 25.0 °F 18.5 °F 30.05 in NW 10.6 mph 15.0 mph 76 % 0.00 in 0.0 W/m2 CLR
20:47 24.9 °F 18.4 °F 30.05 in WNW 7.2 mph 12.7 mph 76 % 0.00 in 0.0 W/m2 CLR
20:52 24.8 °F 18.0 °F 30.05 in WNW 4.8 mph 11.5 mph 75 % 0.00 in 0.0 W/m2 CLR
20:57 24.8 °F 17.4 °F 30.05 in NW 5.0 mph 10.4 mph 73 % 0.00 in 0.0 W/m2 CLR
21:02 24.9 °F 16.8 °F 30.05 in NW 7.0 mph 13.8 mph 71 % 0.00 in 0.0 W/m2 CLR
21:07 24.9 °F 16.5 °F 30.06 in NW 5.4 mph 9.2 mph 70 % 0.00 in 0.0 W/m2 CLR
21:12 24.9 °F 16.2 °F 30.06 in WNW 11.3 mph 16.1 mph 69 % 0.00 in 0.0 W/m2 CLR
21:17 25.0 °F 15.9 °F 30.06 in WNW 8.4 mph 15.0 mph 68 % 0.00 in 0.0 W/m2 CLR
21:22 25.0 °F 15.6 °F 30.07 in West 9.2 mph 18.4 mph 67 % 0.00 in 0.0 W/m2 CLR
21:27 25.2 °F 16.1 °F 30.07 in NW 7.3 mph 17.3 mph 68 % 0.00 in 0.0 W/m2 CLR
21:32 25.2 °F 16.1 °F 30.08 in WNW 11.2 mph 20.7 mph 68 % 0.00 in 0.0 W/m2 CLR
21:37 25.1 °F 16.0 °F 30.08 in WNW 13.2 mph 18.0 mph 68 % 0.00 in 0.0 W/m2 CLR
21:42 25.0 °F 15.9 °F 30.08 in West 8.1 mph 13.0 mph 68 % 0.00 in 0.0 W/m2 CLR
21:48 25.1 °F 16.0 °F 30.09 in WNW 8.8 mph 15.0 mph 68 % 0.00 in 0.0 W/m2 CLR
21:53 25.0 °F 15.6 °F 30.09 in WNW 5.5 mph 15.0 mph 67 % 0.00 in 0.0 W/m2 CLR
21:58 24.9 °F 15.8 °F 30.09 in NNW 9.9 mph 18.4 mph 68 % 0.00 in 0.0 W/m2 CLR
22:03 24.6 °F 15.2 °F 30.09 in WNW 20.5 mph 23.0 mph 67 % 0.00 in 0.0 W/m2 CLR
22:08 24.0 °F 16.0 °F 30.09 in NW 8.6 mph 12.7 mph 71 % 0.00 in 0.0 W/m2 CLR
22:13 23.6 °F 15.2 °F 30.10 in West 10.8 mph 17.3 mph 70 % 0.00 in 0.0 W/m2 CLR
22:18 23.3 °F 14.6 °F 30.10 in West 15.0 mph 19.6 mph 69 % 0.00 in 0.0 W/m2 CLR
22:23 23.2 °F 13.9 °F 30.10 in WNW 7.9 mph 13.0 mph 67 % 0.00 in 0.0 W/m2 CLR
22:28 23.1 °F 13.1 °F 30.10 in West 12.8 mph 17.3 mph 65 % 0.00 in 0.0 W/m2 CLR
22:33 23.0 °F 12.3 °F 30.11 in West 11.1 mph 19.6 mph 63 % 0.00 in 0.0 W/m2 CLR
22:38 23.0 °F 11.5 °F 30.11 in WNW 5.7 mph 11.5 mph 61 % 0.00 in 0.0 W/m2 CLR
22:43 22.8 °F 11.3 °F 30.11 in NW 14.5 mph 20.7 mph 61 % 0.00 in 0.0 W/m2 CLR
22:48 22.6 °F 11.2 °F 30.11 in NW 9.8 mph 19.6 mph 61 % 0.00 in 0.0 W/m2 CLR
22:53 22.3 °F 10.9 °F 30.11 in NW 5.7 mph 11.5 mph 61 % 0.00 in 0.0 W/m2 CLR
22:58 22.1 °F 10.7 °F 30.12 in NNW 8.3 mph 12.0 mph 61 % 0.00 in 0.0 W/m2 CLR
22:59 22.1 °F 10.3 °F 30.12 in NW 15.7 mph 25.0 mph 60 % 0.00 in 0.0 W/m2 CLR
23:04 21.8 °F 10.8 °F 30.12 in West 10.5 mph 17.3 mph 62 % 0.00 in 0.0 W/m2 CLR
23:09 21.7 °F 9.9 °F 30.12 in NNW 14.1 mph 19.6 mph 60 % 0.00 in 0.0 W/m2 CLR
23:14 21.6 °F 9.5 °F 30.12 in NW 10.0 mph 17.0 mph 59 % 0.00 in 0.0 W/m2 CLR
23:19 21.4 °F 8.5 °F 30.12 in WNW 9.7 mph 16.1 mph 57 % 0.00 in 0.0 W/m2 CLR
23:24 21.4 °F 8.5 °F 30.12 in NNW 7.8 mph 12.7 mph 57 % 0.00 in 0.0 W/m2 CLR
23:29 21.3 °F 8.4 °F 30.13 in WNW 6.3 mph 11.5 mph 57 % 0.00 in 0.0 W/m2 CLR
23:34 21.2 °F 7.9 °F 30.13 in NNW 6.8 mph 19.6 mph 56 % 0.00 in 0.0 W/m2 CLR
23:39 21.1 °F 7.8 °F 30.13 in NW 8.5 mph 16.1 mph 56 % 0.00 in 0.0 W/m2 CLR
23:44 21.0 °F 7.3 °F 30.13 in West 7.4 mph 15.0 mph 55 % 0.00 in 0.0 W/m2 CLR
23:49 21.0 °F 6.9 °F 30.13 in NW 12.3 mph 16.1 mph 54 % 0.00 in 0.0 W/m2 CLR
23:54 21.0 °F 6.5 °F 30.14 in NW 10.9 mph 19.6 mph 53 % 0.00 in 0.0 W/m2 CLR
23:59 20.9 °F 6.4 °F 30.14 in WNW 6.2 mph 9.2 mph 53 % 0.00 in 0.0 W/m2 CLR
Air Products Campus Weather
Compliments of Weather Underground - 3.5 mb